Terminal Aerodrome Forecast
Issued by NWS Dodge City, KS

Home | Current Version | Previous Version | Graphics & Text | Print | Product List | Glossary Off
Versions: 1 2 3 4 5 6 7 8 9 10 11 12 13 14 15 16 17 18 19 20 21 22

000
FTUS43 KDDC 241120
TAFDDC
TAF
KDDC 241120Z 2412/2512 01006KT 4SM BR BKN004 OVC016
     FM241600 18010KT P6SM BKN003
     FM241700 25015G25KT P6SM BKN008
     FM241800 29015G23KT P6SM BKN010
     FM241900 30018G28KT P6SM SCT015
     FM250200 29006KT P6SM SKC=

USA.gov is the U.S. government's official web portal to all federal, state and local government web resources and services.